KFRR/FRR METAR and TAF weather

Enter ICAO airport designator
Station Type Date Time Source
KFRR METAR 2019/05/26 22:55 UTC NOAA

KFRR 262255Z AUTO 00000KT CLR 26/22 A2994 RMK AO1


Station Type Date Time Source
KFRR Decoded METAR 2019/05/26 22:55 UTC NOAA

Station name not available
May 26, 2019 - 06:55 PM EDT / 2019.05.26 2255 UTC
Wind: Calm:0
Sky conditions: clear
Temperature: 78 F (26 C)
Dew Point: 71 F (22 C)
Relative Humidity: 78%
Pressure (altimeter): 29.94 in. Hg (1013 hPa)
ob: KFRR 262255Z AUTO 00000KT CLR 26/22 A2994 RMK AO1
cycle: 23

Station Type Date Time Source
KFRR TAF UTC NOAA

Error!

Example: see airport list